Time;durP1;ratioP1;P1;durP2;ratioP2;P2;SDS_P1;SDS_P2;PMS_P1;PMS_P2;Temp;Humidity;BMP_temperature;BMP_pressure;BME280_temperature;BME280_humidity;BME280_pressure;Samples;Min_cycle;Max_cycle;Signal;HPM_P1;HPM_P2
2023/05/12 00:00:01;;;;;;;2.10;1.40;;;16.10;64.60;16.10;100639.00;;;;4924625;28;107319;-69
2023/05/12 00:02:27;;;;;;;2.05;1.65;;;16.00;64.60;16.00;100634.00;;;;4925770;28;93694;-71
2023/05/12 00:04:53;;;;;;;2.10;1.95;;;16.00;65.00;16.00;100632.00;;;;4929418;28;101310;-69
2023/05/12 00:07:18;;;;;;;4.75;1.27;;;15.90;65.10;16.00;100642.00;;;;4926391;28;109917;-70
2023/05/12 00:09:44;;;;;;;4.32;1.77;;;15.90;65.40;15.90;100633.00;;;;4923984;28;93038;-69
2023/05/12 00:12:10;;;;;;;2.33;1.75;;;15.90;65.30;15.90;100636.00;;;;4924237;28;120677;-72
2023/05/12 00:14:36;;;;;;;1.50;1.40;;;15.90;65.60;15.90;100638.00;;;;4928582;28;122470;-69
2023/05/12 00:17:03;;;;;;;1.55;1.45;;;15.80;65.90;15.90;100637.00;;;;4924734;28;92781;-69
2023/05/12 00:19:30;;;;;;;2.55;1.40;;;15.80;66.80;15.90;100635.00;;;;4926957;28;93787;-69
2023/05/12 00:21:59;;;;;;;2.03;1.83;;;15.80;66.20;15.80;100646.00;;;;4938302;28;121549;-71
2023/05/12 00:24:25;;;;;;;1.45;1.35;;;15.80;66.40;15.80;100640.00;;;;4923230;28;121539;-71
2023/05/12 00:26:51;;;;;;;2.03;1.40;;;15.70;66.40;15.80;100634.00;;;;4927087;28;93186;-71
2023/05/12 00:29:17;;;;;;;2.17;1.30;;;15.70;66.40;15.80;100633.00;;;;4924340;28;92962;-70
2023/05/12 00:31:42;;;;;;;2.30;2.10;;;15.70;66.60;15.70;100635.00;;;;4926972;28;117472;-71
2023/05/12 00:34:08;;;;;;;2.38;1.90;;;15.70;66.70;15.70;100635.00;;;;4922895;28;123644;-71
2023/05/12 00:36:34;;;;;;;1.95;1.80;;;15.60;66.80;15.70;100650.00;;;;4926259;28;110823;-68
2023/05/12 00:38:59;;;;;;;4.38;2.35;;;15.60;66.90;15.70;100642.00;;;;4923290;28;108962;-68
2023/05/12 00:41:25;;;;;;;3.00;1.83;;;15.60;67.10;15.60;100633.00;;;;4925503;28;123116;-69
2023/05/12 00:43:51;;;;;;;3.38;1.92;;;15.60;67.30;15.60;100638.00;;;;4927791;28;93962;-70
2023/05/12 00:46:17;;;;;;;1.92;1.73;;;15.60;67.50;15.50;100640.00;;;;4926289;28;109663;-69
2023/05/12 00:48:44;;;;;;;6.10;2.45;;;15.50;67.70;15.50;100630.00;;;;4924794;28;93034;-71
2023/05/12 00:51:11;;;;;;;2.63;2.22;;;15.40;67.80;15.50;100634.00;;;;4924685;28;93455;-69
2023/05/12 00:53:37;;;;;;;2.25;2.00;;;15.40;68.00;15.40;100639.00;;;;4924762;28;92960;-70
2023/05/12 00:56:04;;;;;;;1.60;1.50;;;15.40;68.20;15.40;100630.00;;;;4923520;28;109522;-69
2023/05/12 00:58:29;;;;;;;1.70;1.45;;;15.30;68.20;15.30;100636.00;;;;4925066;28;93219;-72
2023/05/12 01:00:55;;;;;;;2.85;1.77;;;15.30;68.40;15.30;100631.00;;;;4926024;28;109931;-70
2023/05/12 01:03:21;;;;;;;2.70;1.52;;;15.20;68.50;15.20;100644.00;;;;4926882;28;92999;-70
2023/05/12 01:06:15;;;;;;;2.08;1.90;;;15.20;68.60;15.20;100643.00;;;;4925852;28;108743;-72
2023/05/12 01:08:42;;;;;;;3.22;1.98;;;15.20;69.10;15.20;100643.00;;;;4926412;28;96337;-71
2023/05/12 01:11:07;;;;;;;3.33;1.80;;;15.10;69.10;15.10;100634.00;;;;4925726;28;103904;-70
2023/05/12 01:13:33;;;;;;;1.50;1.40;;;15.10;69.30;15.10;100638.00;;;;4925054;28;103307;-71
2023/05/12 01:16:01;;;;;;;1.70;1.55;;;15.00;69.30;15.00;100637.00;;;;4925584;28;111185;-69
2023/05/12 01:18:27;;;;;;;1.58;1.48;;;15.00;69.50;15.00;100643.00;;;;4923228;28;94301;-69
2023/05/12 01:20:55;;;;;;;4.15;2.10;;;14.90;69.80;14.90;100638.00;;;;4925256;28;121542;-70
2023/05/12 01:23:26;;;;;;;3.45;1.85;;;14.90;70.20;14.80;100647.00;;;;4923921;28;94788;-69
2023/05/12 01:25:54;;;;;;;1.83;1.73;;;14.80;70.60;14.70;100641.00;;;;4926639;28;93951;-70
2023/05/12 01:28:21;;;;;;;1.77;1.67;;;14.80;70.90;14.70;100638.00;;;;4925562;28;95819;-70
2023/05/12 01:30:47;;;;;;;2.50;2.10;;;14.70;71.30;14.60;100641.00;;;;4928089;28;110162;-68
2023/05/12 01:33:13;;;;;;;2.75;1.58;;;14.60;71.50;14.60;100650.00;;;;4926191;28;121946;-71
2023/05/12 01:35:39;;;;;;;2.10;1.90;;;14.60;71.60;14.50;100646.00;;;;4925066;28;93054;-69
2023/05/12 01:38:04;;;;;;;2.65;1.83;;;14.50;71.90;14.50;100644.00;;;;4923304;28;108980;-71
2023/05/12 01:40:30;;;;;;;2.28;1.95;;;14.40;72.00;14.50;100642.00;;;;4927604;28;122858;-70
2023/05/12 01:42:56;;;;;;;2.97;2.22;;;14.40;72.50;14.40;100649.00;;;;4922659;28;122210;-72
2023/05/12 01:45:21;;;;;;;2.10;1.90;;;14.40;72.70;14.30;100649.00;;;;4924802;28;93186;-70
2023/05/12 01:47:47;;;;;;;2.63;2.35;;;14.30;73.10;14.30;100653.00;;;;4923762;28;107345;-72
2023/05/12 01:50:12;;;;;;;2.05;1.75;;;14.30;73.20;14.30;100650.00;;;;4924393;28;122117;-70
2023/05/12 01:52:38;;;;;;;4.13;1.98;;;14.30;73.40;14.30;100655.00;;;;4924159;28;121170;-70
2023/05/12 01:55:04;;;;;;;3.85;2.10;;;14.30;73.60;14.30;100659.00;;;;4924745;28;92858;-70
2023/05/12 01:57:30;;;;;;;2.88;2.60;;;14.20;73.60;14.20;100653.00;;;;4926067;28;99911;-70
2023/05/12 01:59:56;;;;;;;1.98;1.65;;;14.20;73.80;14.20;100650.00;;;;4925151;28;94024;-73
2023/05/12 02:02:21;;;;;;;3.45;2.38;;;14.20;74.10;14.20;100657.00;;;;4927706;28;93641;-70
2023/05/12 02:04:47;;;;;;;1.83;1.55;;;14.10;74.10;14.20;100655.00;;;;4926900;28;109994;-70
2023/05/12 02:07:14;;;;;;;3.97;2.30;;;14.10;74.50;14.10;100651.00;;;;4925469;28;109784;-72
2023/05/12 02:09:40;;;;;;;3.10;2.25;;;14.10;74.50;14.10;100663.00;;;;4924053;28;93226;-70
2023/05/12 02:12:06;;;;;;;2.88;1.92;;;14.00;74.70;14.00;100655.00;;;;4911535;28;122084;-69
2023/05/12 02:14:32;;;;;;;2.50;2.30;;;14.00;75.00;14.00;100658.00;;;;4925881;28;92163;-72
2023/05/12 02:16:58;;;;;;;2.17;1.60;;;13.90;75.20;13.90;100648.00;;;;4930323;28;92946;-72
2023/05/12 02:19:24;;;;;;;3.03;1.90;;;13.90;75.30;13.90;100659.00;;;;4926085;28;121454;-71
2023/05/12 02:21:49;;;;;;;2.37;2.17;;;13.90;75.80;13.80;100655.00;;;;4928222;28;95086;-71
2023/05/12 02:24:15;;;;;;;2.00;1.80;;;13.80;75.80;13.80;100656.00;;;;4925829;28;109774;-70
2023/05/12 02:26:41;;;;;;;3.33;2.00;;;13.80;76.10;13.70;100660.00;;;;4927543;28;92856;-69
2023/05/12 02:29:07;;;;;;;3.53;2.45;;;13.70;76.30;13.70;100666.00;;;;4927074;28;108648;-71
2023/05/12 02:31:33;;;;;;;5.07;2.40;;;13.70;76.90;13.60;100664.00;;;;4926845;28;122236;-71
2023/05/12 02:34:00;;;;;;;3.47;1.83;;;13.60;77.10;13.60;100661.00;;;;4925973;28;110739;-69
2023/05/12 02:36:25;;;;;;;3.08;2.33;;;13.60;77.40;13.50;100662.00;;;;4927751;28;93397;-72
2023/05/12 02:38:51;;;;;;;4.83;2.47;;;13.50;77.60;13.50;100658.00;;;;4927394;28;92719;-70
2023/05/12 02:41:17;;;;;;;3.60;2.17;;;13.50;78.10;13.50;100662.00;;;;4929770;28;115895;-72
2023/05/12 02:43:42;;;;;;;4.95;2.35;;;13.40;78.20;13.40;100664.00;;;;4940139;28;110318;-72
2023/05/12 02:46:08;;;;;;;2.23;2.03;;;13.40;78.50;13.40;100661.00;;;;4927490;28;93830;-69
2023/05/12 02:48:34;;;;;;;2.07;1.90;;;13.40;79.00;13.30;100655.00;;;;4926309;28;123356;-70
2023/05/12 02:50:59;;;;;;;3.67;2.33;;;13.30;79.00;13.30;100656.00;;;;4927463;28;93944;-72
2023/05/12 02:53:26;;;;;;;3.23;2.23;;;13.30;79.10;13.30;100662.00;;;;4926733;28;93029;-71
2023/05/12 02:55:52;;;;;;;2.33;2.07;;;13.30;79.60;13.30;100656.00;;;;4928444;28;93020;-70
2023/05/12 02:58:18;;;;;;;2.53;2.07;;;13.20;79.80;13.20;100655.00;;;;4926990;28;101364;-72
2023/05/12 03:00:43;;;;;;;3.53;2.53;;;13.20;80.30;13.20;100655.00;;;;4923342;28;121823;-70
2023/05/12 03:03:09;;;;;;;2.40;1.80;;;13.20;80.40;13.10;100660.00;;;;4927332;28;104329;-69
2023/05/12 03:05:35;;;;;;;2.00;1.70;;;13.10;80.50;13.10;100652.00;;;;4926063;28;109924;-71
2023/05/12 03:08:01;;;;;;;3.30;2.80;;;13.10;80.90;13.10;100653.00;;;;4927289;28;123202;-71
2023/05/12 03:10:26;;;;;;;2.07;1.83;;;13.10;81.00;13.10;100656.00;;;;4928505;28;93970;-70
2023/05/12 03:12:52;;;;;;;3.13;2.30;;;13.10;81.10;13.10;100660.00;;;;4926877;28;109918;-70
2023/05/12 03:15:17;;;;;;;2.83;1.57;;;13.10;81.40;13.00;100667.00;;;;4926565;28;109807;-70
2023/05/12 03:17:43;;;;;;;3.90;2.60;;;13.00;81.20;13.00;100662.00;;;;4924307;28;122767;-70
2023/05/12 03:20:09;;;;;;;3.17;1.60;;;13.00;81.40;13.00;100655.00;;;;4926336;28;121762;-71
2023/05/12 03:22:35;;;;;;;3.67;2.57;;;13.00;81.30;13.10;100664.00;;;;4927153;28;93032;-71
2023/05/12 03:25:02;;;;;;;3.53;2.13;;;13.00;81.20;13.10;100665.00;;;;4926830;28;108643;-71
2023/05/12 03:27:29;;;;;;;3.20;2.00;;;13.00;81.40;13.00;100662.00;;;;4925055;28;92673;-71
2023/05/12 03:29:55;;;;;;;4.27;2.30;;;13.00;81.40;13.00;100667.00;;;;4926825;28;110667;-69
2023/05/12 03:32:21;;;;;;;4.73;2.40;;;13.00;81.40;13.00;100663.00;;;;4925515;28;93378;-70
2023/05/12 03:34:46;;;;;;;4.80;1.90;;;13.00;81.40;13.00;100662.00;;;;4924532;28;94026;-71
2023/05/12 03:37:12;;;;;;;3.07;1.80;;;13.00;81.60;13.00;100666.00;;;;4924847;28;121803;-69
2023/05/12 03:39:38;;;;;;;1.93;1.60;;;13.00;81.60;13.00;100671.00;;;;4923562;28;122498;-70
2023/05/12 03:42:04;;;;;;;3.27;2.63;;;13.00;81.90;13.00;100670.00;;;;4927538;28;93148;-70
2023/05/12 03:44:29;;;;;;;3.87;2.00;;;13.00;81.80;12.90;100668.00;;;;4925789;28;92839;-69
2023/05/12 03:46:55;;;;;;;3.63;2.67;;;12.90;81.90;12.90;100667.00;;;;4924890;28;122928;-71
2023/05/12 03:49:21;;;;;;;7.07;2.53;;;12.90;82.10;12.90;100675.00;;;;4924030;28;93876;-70
2023/05/12 03:51:46;;;;;;;2.67;1.80;;;12.90;82.10;12.90;100663.00;;;;4926373;28;110576;-69
2023/05/12 03:54:12;;;;;;;2.53;2.17;;;12.90;82.30;12.90;100669.00;;;;4924780;28;108430;-70
2023/05/12 03:56:37;;;;;;;3.23;2.63;;;12.90;82.50;12.90;100668.00;;;;4899723;28;123576;-71
2023/05/12 03:59:03;;;;;;;2.80;1.90;;;12.90;82.50;12.90;100668.00;;;;4934205;28;119161;-70
2023/05/12 04:01:29;;;;;;;2.27;2.03;;;12.90;82.70;12.90;100666.00;;;;4924879;28;110106;-69
2023/05/12 04:03:55;;;;;;;4.07;2.50;;;12.90;82.70;12.90;100679.00;;;;4925959;28;93020;-69
2023/05/12 04:06:20;;;;;;;2.67;2.23;;;12.90;82.90;12.90;100677.00;;;;4912577;28;120544;-69
2023/05/12 04:08:46;;;;;;;2.00;1.90;;;12.90;82.90;12.90;100675.00;;;;4927485;28;120694;-71
2023/05/12 04:11:12;;;;;;;2.97;2.13;;;12.90;82.90;13.00;100672.00;;;;4923218;28;110342;-72
2023/05/12 04:13:38;;;;;;;5.53;2.70;;;12.90;82.90;13.00;100688.00;;;;4928155;28;93124;-69
2023/05/12 04:16:04;;;;;;;2.70;1.83;;;13.00;83.00;13.10;100679.00;;;;4920480;28;120442;-69
2023/05/12 04:18:30;;;;;;;4.57;2.50;;;13.00;82.90;13.10;100688.00;;;;4922087;28;94239;-70
2023/05/12 04:20:55;;;;;;;4.10;2.23;;;13.10;83.00;13.20;100684.00;;;;4922659;28;109409;-72
2023/05/12 04:23:22;;;;;;;2.53;2.10;;;13.10;82.90;13.20;100687.00;;;;4920152;28;108058;-69
2023/05/12 04:25:47;;;;;;;2.33;1.93;;;13.10;82.80;13.20;100684.00;;;;4920281;28;104606;-72
2023/05/12 04:28:13;;;;;;;1.77;1.63;;;13.20;83.00;13.30;100692.00;;;;4922506;28;122105;-70
2023/05/12 04:30:40;;;;;;;2.67;1.87;;;13.20;83.00;13.30;100685.00;;;;4922043;28;111459;-70
2023/05/12 04:33:06;;;;;;;2.27;1.83;;;13.20;82.90;13.30;100689.00;;;;4924543;28;93383;-71
2023/05/12 04:35:32;;;;;;;1.80;1.70;;;13.30;82.90;13.40;100691.00;;;;4920966;28;105198;-69
2023/05/12 04:38:00;;;;;;;3.53;2.40;;;13.30;82.70;13.40;100695.00;;;;4921615;28;99174;-71
2023/05/12 04:40:26;;;;;;;1.83;1.73;;;13.30;82.50;13.40;100694.00;;;;4920272;28;92039;-69
2023/05/12 04:42:51;;;;;;;2.07;1.93;;;13.40;82.50;13.50;100708.00;;;;4920566;28;100919;-71
2023/05/12 04:45:17;;;;;;;2.93;2.03;;;13.40;82.50;13.60;100692.00;;;;4919062;28;122223;-71
2023/05/12 04:47:43;;;;;;;2.80;1.93;;;13.50;82.30;13.70;100703.00;;;;4920161;28;121994;-70
2023/05/12 04:50:09;;;;;;;2.70;1.90;;;13.60;82.10;13.80;100698.00;;;;4921582;28;110198;-71
2023/05/12 04:52:36;;;;;;;4.97;2.00;;;13.70;81.90;13.80;100703.00;;;;4920777;28;93094;-69
2023/05/12 04:55:02;;;;;;;3.43;2.40;;;13.70;81.70;13.90;100707.00;;;;4920940;28;94867;-70
2023/05/12 04:57:27;;;;;;;2.27;2.07;;;13.90;81.50;14.00;100704.00;;;;4918715;28;107168;-74
2023/05/12 04:59:54;;;;;;;2.80;1.73;;;13.90;82.00;14.10;100702.00;;;;4920052;28;109710;-70
2023/05/12 05:02:20;;;;;;;2.90;2.30;;;14.00;80.80;14.20;100714.00;;;;4920808;28;94288;-72
2023/05/12 05:04:45;;;;;;;2.17;1.97;;;14.10;80.20;14.30;100707.00;;;;4921133;28;93155;-70
2023/05/12 05:07:11;;;;;;;1.90;1.77;;;14.20;80.10;14.40;100707.00;;;;4922120;28;122133;-71
2023/05/12 05:09:37;;;;;;;2.30;1.55;;;14.30;80.10;14.50;100708.00;;;;4917803;28;111618;-71
2023/05/12 05:12:02;;;;;;;2.03;1.88;;;14.40;79.80;14.60;100703.00;;;;4918322;28;107804;-70
2023/05/12 05:14:28;;;;;;;4.47;1.88;;;14.50;79.00;14.70;100709.00;;;;4921031;28;113724;-69
2023/05/12 05:16:54;;;;;;;4.55;2.17;;;14.60;78.60;14.80;100710.00;;;;4920025;28;123319;-70
2023/05/12 05:19:19;;;;;;;3.07;2.10;;;14.60;78.20;14.90;100712.00;;;;4917418;28;110855;-70
2023/05/12 05:21:45;;;;;;;1.92;1.80;;;14.70;77.00;15.00;100713.00;;;;4920837;28;107734;-71
2023/05/12 05:24:11;;;;;;;1.90;1.67;;;14.90;76.10;15.00;100720.00;;;;4922177;28;122780;-69
2023/05/12 05:26:36;;;;;;;2.38;1.80;;;14.90;75.80;15.10;100709.00;;;;4917384;28;122909;-69
2023/05/12 05:29:05;;;;;;;2.78;1.80;;;15.00;75.30;15.20;100717.00;;;;4921570;28;111085;-71
2023/05/12 05:31:30;;;;;;;1.67;1.58;;;15.10;74.80;15.30;100715.00;;;;4920485;28;92869;-70
2023/05/12 05:33:56;;;;;;;2.53;2.05;;;15.30;74.00;15.40;100706.00;;;;4918772;28;122897;-70
2023/05/12 05:36:22;;;;;;;2.88;1.85;;;15.30;73.50;15.50;100715.00;;;;4924149;28;123278;-70
2023/05/12 05:38:48;;;;;;;2.35;1.60;;;15.40;72.80;15.60;100717.00;;;;4913553;28;92895;-70
2023/05/12 05:41:14;;;;;;;3.30;2.13;;;15.50;72.50;15.70;100711.00;;;;4924701;28;109356;-70
2023/05/12 05:43:39;;;;;;;2.72;1.92;;;15.50;72.00;15.80;100721.00;;;;4927344;28;93034;-72
2023/05/12 05:46:06;;;;;;;3.00;2.30;;;15.70;71.70;15.90;100722.00;;;;4923884;28;121458;-70
2023/05/12 05:48:32;;;;;;;2.22;1.65;;;15.80;71.20;16.00;100721.00;;;;4923643;28;111246;-69
2023/05/12 05:50:57;;;;;;;2.92;1.95;;;15.90;71.20;16.20;100724.00;;;;4925527;28;93024;-69
2023/05/12 05:53:23;;;;;;;4.07;1.92;;;16.00;70.00;16.40;100726.00;;;;4925201;28;122899;-70
2023/05/12 05:55:49;;;;;;;2.13;1.92;;;16.20;69.40;16.50;100731.00;;;;4924257;28;120959;-70
2023/05/12 05:58:15;;;;;;;2.60;1.90;;;16.30;69.50;16.70;100731.00;;;;4922868;28;92957;-70
2023/05/12 06:00:41;;;;;;;3.60;2.05;;;16.50;68.70;16.80;100725.00;;;;4925465;28;94278;-71
2023/05/12 06:03:07;;;;;;;2.28;1.85;;;16.60;67.60;16.90;100727.00;;;;4922087;28;115770;-72
2023/05/12 06:05:33;;;;;;;2.38;1.88;;;16.70;66.50;17.00;100728.00;;;;4920653;28;122123;-72
2023/05/12 06:07:58;;;;;;;4.78;1.90;;;16.80;66.40;17.10;100734.00;;;;4924540;28;93159;-73
2023/05/12 06:10:24;;;;;;;2.58;2.30;;;16.90;67.00;17.30;100737.00;;;;4923305;28;108371;-70
2023/05/12 06:12:50;;;;;;;2.38;2.17;;;17.10;66.10;17.40;100731.00;;;;4922271;28;111902;-69
2023/05/12 06:15:16;;;;;;;1.85;1.60;;;17.20;65.60;17.60;100737.00;;;;4923169;28;94157;-72
2023/05/12 06:17:42;;;;;;;2.83;1.40;;;17.30;64.50;17.70;100744.00;;;;4924680;28;98357;-70
2023/05/12 06:20:08;;;;;;;3.65;1.88;;;17.50;64.60;17.70;100741.00;;;;4922813;28;94040;-72
2023/05/12 06:22:34;;;;;;;5.35;2.10;;;17.60;62.80;17.80;100747.00;;;;4922835;28;93210;-71
2023/05/12 06:25:01;;;;;;;3.13;2.15;;;17.60;62.80;17.80;100744.00;;;;4923317;28;94117;-74
2023/05/12 06:27:26;;;;;;;2.38;1.85;;;17.70;62.90;17.90;100754.00;;;;4927751;28;93227;-70
2023/05/12 06:29:58;;;;;;;5.20;2.28;;;17.80;60.80;18.00;100755.00;;;;4924409;28;108997;-72
2023/05/12 06:32:24;;;;;;;3.03;2.03;;;17.80;59.90;18.00;100746.00;;;;4923305;28;121987;-70
2023/05/12 06:34:50;;;;;;;3.85;2.05;;;17.80;59.40;17.90;100759.00;;;;4922778;28;112952;-71
2023/05/12 06:37:15;;;;;;;2.70;1.52;;;17.80;59.20;17.90;100756.00;;;;4922206;28;96032;-70
2023/05/12 06:39:41;;;;;;;2.72;2.03;;;17.80;59.50;18.00;100749.00;;;;4924496;28;110831;-71
2023/05/12 06:42:07;;;;;;;3.80;1.70;;;17.90;59.70;18.20;100749.00;;;;4926190;28;110766;-70
2023/05/12 06:44:32;;;;;;;4.07;1.98;;;18.00;60.00;18.30;100750.00;;;;4923182;28;122505;-71
2023/05/12 06:46:58;;;;;;;2.47;1.70;;;18.10;59.60;18.50;100743.00;;;;4920980;28;109894;-70
2023/05/12 06:49:24;;;;;;;2.50;1.60;;;18.20;59.40;18.70;100756.00;;;;4921859;28;94165;-72
2023/05/12 06:51:50;;;;;;;2.03;1.65;;;18.40;59.70;18.90;100756.00;;;;4921200;28;95701;-71
2023/05/12 06:54:15;;;;;;;4.60;2.42;;;18.70;59.70;19.20;100758.00;;;;4920595;28;93027;-70
2023/05/12 06:56:41;;;;;;;1.80;1.70;;;18.90;59.60;19.40;100763.00;;;;4922819;28;93180;-70
2023/05/12 06:59:07;;;;;;;2.17;1.60;;;19.10;59.60;19.60;100760.00;;;;4924434;28;101354;-70
2023/05/12 07:01:32;;;;;;;3.65;2.17;;;19.30;58.50;19.80;100763.00;;;;4926828;28;122542;-70
2023/05/12 07:03:59;;;;;;;2.20;1.55;;;19.60;57.80;20.00;100761.00;;;;4925332;28;93370;-70
2023/05/12 07:06:28;;;;;;;4.50;1.80;;;19.70;57.90;20.30;100755.00;;;;4925451;28;92492;-70
2023/05/12 07:08:54;;;;;;;1.98;1.42;;;20.00;57.00;20.40;100755.00;;;;4927241;28;93313;-70
2023/05/12 07:11:21;;;;;;;2.63;1.80;;;20.20;56.60;20.60;100764.00;;;;4922459;28;94088;-71
2023/05/12 07:13:48;;;;;;;2.58;1.88;;;20.40;54.00;20.60;100756.00;;;;4924259;28;104851;-70
2023/05/12 07:16:14;;;;;;;3.17;1.42;;;20.50;53.00;20.70;100754.00;;;;4924181;28;97596;-71
2023/05/12 07:18:40;;;;;;;2.42;1.92;;;20.50;51.60;20.60;100755.00;;;;4924656;28;92884;-70
2023/05/12 07:21:06;;;;;;;2.55;1.95;;;20.50;52.00;20.80;100754.00;;;;4920293;28;94025;-70
2023/05/12 07:23:33;;;;;;;3.95;1.73;;;20.50;51.90;20.90;100745.00;;;;4923707;28;103831;-70
2023/05/12 07:26:01;;;;;;;4.15;2.00;;;20.60;51.90;21.00;100752.00;;;;4922739;28;92684;-70
2023/05/12 07:28:31;;;;;;;2.97;1.63;;;20.70;51.50;21.10;100744.00;;;;4918773;28;92768;-70
2023/05/12 07:30:58;;;;;;;2.35;1.88;;;20.80;50.70;21.10;100750.00;;;;4922619;28;93861;-71
2023/05/12 07:33:24;;;;;;;2.30;1.42;;;20.90;50.50;21.20;100749.00;;;;4924080;28;92888;-72
2023/05/12 07:35:49;;;;;;;2.65;2.08;;;21.00;50.20;21.20;100744.00;;;;4921149;28;92870;-71
2023/05/12 07:38:16;;;;;;;1.85;1.42;;;21.00;49.10;21.20;100746.00;;;;4921491;28;110036;-70
2023/05/12 07:40:42;;;;;;;2.78;1.80;;;21.10;48.70;21.30;100749.00;;;;4924566;28;93998;-72
2023/05/12 07:43:07;;;;;;;4.63;1.65;;;21.10;49.00;21.40;100756.00;;;;4907884;28;94573;-72
2023/05/12 07:45:33;;;;;;;2.70;2.22;;;21.10;49.30;21.50;100753.00;;;;4923170;28;110085;-71
2023/05/12 07:47:59;;;;;;;2.08;1.52;;;21.20;49.20;21.70;100754.00;;;;4922296;28;109054;-70
2023/05/12 07:50:24;;;;;;;2.70;1.90;;;21.50;47.30;21.60;100750.00;;;;4916859;28;111106;-71
2023/05/12 07:52:52;;;;;;;2.67;1.73;;;21.40;47.40;21.60;100755.00;;;;4922267;28;122152;-73
2023/05/12 07:55:19;;;;;;;6.57;2.03;;;21.40;48.20;21.70;100753.00;;;;4923750;28;92333;-71
2023/05/12 07:57:45;;;;;;;2.55;1.73;;;21.50;48.30;22.00;100754.00;;;;4921187;28;93094;-71
2023/05/12 08:00:12;;;;;;;1.40;1.27;;;21.70;48.10;22.20;100759.00;;;;4920779;28;110217;-71
2023/05/12 08:02:39;;;;;;;1.75;1.65;;;21.90;47.90;22.40;100758.00;;;;4920639;28;93957;-73
2023/05/12 08:05:05;;;;;;;2.50;1.77;;;22.10;47.20;22.60;100752.00;;;;4922321;28;93176;-73
2023/05/12 08:07:31;;;;;;;5.28;1.83;;;22.30;46.50;22.70;100752.00;;;;4921462;28;98040;-75
2023/05/12 08:09:57;;;;;;;3.67;1.92;;;22.50;46.30;22.90;100752.00;;;;4903484;28;96178;-75
2023/05/12 08:12:23;;;;;;;1.60;1.48;;;22.60;45.70;23.00;100750.00;;;;4921588;28;121685;-72
2023/05/12 08:14:48;;;;;;;2.22;1.40;;;22.70;45.50;23.10;100757.00;;;;4921046;28;110299;-76
2023/05/12 08:17:20;;;;;;;5.93;2.17;;;22.80;45.00;23.00;100748.00;;;;4923315;28;107811;-71
2023/05/12 08:19:49;;;;;;;2.25;1.98;;;22.80;43.30;22.90;100751.00;;;;4919055;28;121764;-71
2023/05/12 08:22:15;;;;;;;3.53;1.58;;;22.70;43.10;22.80;100751.00;;;;4918681;28;93106;-75
2023/05/12 08:24:40;;;;;;;4.03;1.63;;;22.70;44.00;22.90;100751.00;;;;4921109;28;93059;-75
2023/05/12 08:27:06;;;;;;;3.75;2.33;;;22.70;43.90;23.00;100746.00;;;;4922012;28;108721;-73
2023/05/12 08:29:32;;;;;;;2.70;1.70;;;22.70;44.10;23.10;100748.00;;;;4904544;28;122154;-73
2023/05/12 08:31:58;;;;;;;3.30;1.90;;;22.80;43.90;23.20;100744.00;;;;4923594;28;108431;-72
2023/05/12 08:34:24;;;;;;;1.98;1.67;;;23.00;43.20;23.30;100745.00;;;;4924797;28;101362;-71
2023/05/12 08:36:53;;;;;;;3.63;1.83;;;23.00;42.80;23.20;100736.00;;;;4922714;28;93323;-72
2023/05/12 08:39:20;;;;;;;2.88;1.75;;;23.00;43.00;23.30;100744.00;;;;4904733;28;105770;-72
2023/05/12 08:42:12;;;;;;;4.18;1.92;;;23.00;42.60;23.40;100749.00;;;;4925081;28;121101;-72
2023/05/12 08:44:39;;;;;;;2.50;1.52;;;23.10;43.60;23.60;100748.00;;;;4921965;28;92128;-72
2023/05/12 08:47:05;;;;;;;3.50;2.42;;;23.30;43.50;23.70;100737.00;;;;4921177;28;93129;-72
2023/05/12 08:49:34;;;;;;;4.20;2.10;;;23.40;43.10;23.80;100744.00;;;;4920533;28;94166;-71
2023/05/12 08:52:01;;;;;;;1.67;1.40;;;23.50;43.30;23.90;100736.00;;;;4919797;28;101520;-74
2023/05/12 08:54:28;;;;;;;2.00;1.58;;;23.60;42.60;24.10;100743.00;;;;4923922;28;93489;-71
2023/05/12 08:56:55;;;;;;;2.55;1.38;;;23.70;43.20;24.30;100734.00;;;;4920256;28;92992;-72
2023/05/12 08:59:23;;;;;;;6.40;1.77;;;23.90;43.10;24.50;100734.00;;;;4921262;28;94077;-70
2023/05/12 09:01:49;;;;;;;2.75;1.60;;;24.10;42.40;24.60;100748.00;;;;4921506;28;93693;-72
2023/05/12 09:04:16;;;;;;;1.67;1.17;;;24.30;42.30;24.80;100737.00;;;;4921237;28;93010;-73
2023/05/12 09:06:43;;;;;;;3.42;2.20;;;24.40;42.10;24.90;100744.00;;;;4923028;28;93171;-78
2023/05/12 09:09:11;;;;;;;2.40;1.75;;;24.60;41.90;25.00;100740.00;;;;4923196;28;92259;-73
2023/05/12 09:11:37;;;;;;;1.73;1.58;;;24.70;40.70;25.00;100741.00;;;;4924467;28;94971;-77
2023/05/12 09:14:18;;;;;;;1.88;1.77;;;24.80;41.30;25.20;100745.00;;;;4926581;28;107906;-76
2023/05/12 09:16:47;;;;;;;4.25;1.90;;;24.90;41.10;25.30;100747.00;;;;4913415;28;94224;-75
2023/05/12 09:19:19;;;;;;;5.25;2.05;;;25.10;40.00;25.40;100744.00;;;;4911808;28;95238;-74
2023/05/12 09:21:46;;;;;;;2.15;1.55;;;25.00;40.00;25.40;100751.00;;;;4927255;28;93160;-74
2023/05/12 09:24:12;;;;;;;1.95;1.23;;;25.10;40.40;25.50;100744.00;;;;4926438;28;92853;-74
2023/05/12 09:26:53;;;;;;;5.38;1.80;;;25.20;40.20;25.60;100754.00;;;;4927898;28;92996;-74
2023/05/12 09:29:19;;;;;;;1.88;1.67;;;25.30;39.90;25.70;100746.00;;;;4924765;28;94058;-77
2023/05/12 09:31:57;;;;;;;1.40;1.02;;;25.40;38.80;25.80;100746.00;;;;4928234;28;94123;-76
2023/05/12 09:34:42;;;;;;;1.00;0.80;;;25.40;39.10;25.90;100757.00;;;;4927010;28;92181;-74
2023/05/12 09:37:08;;;;;;;5.32;1.95;;;25.60;38.70;26.00;100757.00;;;;4927926;28;96930;-74
2023/05/12 09:39:37;;;;;;;1.50;1.27;;;25.60;38.40;26.00;100753.00;;;;4926703;28;93473;-77
2023/05/12 09:42:03;;;;;;;1.63;1.52;;;25.60;38.30;25.90;100746.00;;;;4928275;28;94071;-74
2023/05/12 09:44:32;;;;;;;1.52;1.20;;;25.60;37.70;25.90;100739.00;;;;4929709;28;93055;-73
2023/05/12 09:47:08;;;;;;;1.35;1.23;;;25.60;38.10;26.10;100748.00;;;;4929867;28;93014;-78
2023/05/12 09:49:34;;;;;;;3.47;1.70;;;25.60;38.40;26.10;100748.00;;;;4924772;28;95743;-75
2023/05/12 09:52:00;;;;;;;2.30;1.33;;;25.70;37.40;26.00;100756.00;;;;4922511;28;112929;-73
2023/05/12 09:54:31;;;;;;;1.33;1.13;;;25.70;37.50;26.00;100746.00;;;;4924907;28;93099;-75
2023/05/12 09:57:00;;;;;;;1.73;1.25;;;25.60;37.20;25.90;100747.00;;;;4928047;28;93070;-75
2023/05/12 09:59:32;;;;;;;1.75;1.48;;;25.60;37.50;26.00;100741.00;;;;4929966;28;92227;-74
2023/05/12 10:02:00;;;;;;;4.18;1.30;;;25.60;37.80;26.20;100752.00;;;;4926518;28;113073;-74
2023/05/12 10:04:29;;;;;;;2.75;1.40;;;25.70;38.20;26.30;100752.00;;;;4927942;28;93224;-74
2023/05/12 10:06:56;;;;;;;2.13;1.63;;;25.90;37.30;26.30;100749.00;;;;4924915;28;93792;-73
2023/05/12 10:09:32;;;;;;;2.58;1.67;;;25.80;37.30;26.50;100740.00;;;;4924559;28;122818;-74
2023/05/12 10:11:59;;;;;;;2.45;1.85;;;26.00;37.40;26.70;100737.00;;;;4927912;28;93110;-74
2023/05/12 10:14:25;;;;;;;1.25;1.15;;;26.20;37.60;26.90;100736.00;;;;4926101;28;93242;-76
2023/05/12 10:17:01;;;;;;;2.88;1.23;;;26.30;37.00;27.20;100736.00;;;;4928480;28;109278;-77
2023/05/12 10:19:29;;;;;;;1.45;1.35;;;26.50;36.40;27.20;100745.00;;;;4905982;28;106621;-73
2023/05/12 10:21:56;;;;;;;1.85;1.58;;;26.70;36.60;27.40;100737.00;;;;4928193;28;93124;-75
2023/05/12 10:24:28;;;;;;;1.40;1.27;;;26.70;37.20;27.70;100739.00;;;;4928081;28;92573;-73
2023/05/12 10:26:55;;;;;;;2.30;1.48;;;27.00;37.10;28.00;100745.00;;;;4923279;28;93069;-77
2023/05/12 10:29:28;;;;;;;4.53;1.48;;;27.30;36.50;28.30;100737.00;;;;4922654;28;93026;-74
2023/05/12 10:31:58;;;;;;;1.83;1.40;;;27.60;36.70;28.50;100737.00;;;;4922264;28;96409;-76
2023/05/12 10:34:34;;;;;;;2.35;1.17;;;27.80;35.60;28.80;100734.00;;;;4924183;28;93298;-78
2023/05/12 10:37:05;;;;;;;4.40;1.88;;;28.10;35.80;29.10;100737.00;;;;4922051;28;93095;-74
2023/05/12 10:39:31;;;;;;;3.88;1.67;;;28.30;36.10;29.10;100735.00;;;;4925145;28;94413;-77